Sunflower Hakata — JL6711 — position and weather

sailwx.info

Track history (hours):
 
Tides and Currents Weather Stations Pressure Air Temp Water Temp Dewpoint Dewpoint Depression Visibility Wind Speed Wind Dir Waves Ship Positions

Sunflower Hakata

Last reported at 2017-Dec-15 06:52 UTC. Time now 2017-Dec-15 08:13 UTC.
Position N 32°47' E 133°14'.

Length 167 m; draft 6.6 m.

Type: Cargo ship. MMSI: 431501764.

Date/timePositionNaut miles runAvg speedWind from/ knotsBaromVisibWave heightAir tempDewpointWater temp
2017-Dec-15 06:52N 32°47' E 133°14'27021.8
2017-Dec-14 18:29N 34°25' E 138°16'1120.9
2017-Dec-14 17:58N 34°27' E 138°29'1020.7
2017-Dec-14 17:29N 34°28' E 138°41'1020.9
2017-Dec-14 17:00N 34°30' E 138°53'1121.3
2017-Dec-14 16:30N 34°37' E 139°02'1122.8
2017-Dec-14 16:00N 34°46' E 139°12'2121.2
2017-Dec-14 15:00N 34°59' E 139°31'1121.8
2017-Dec-14 14:30N 35°06' E 139°42'917.6
2017-Dec-14 14:01N 35°14' E 139°46'713.3
2017-Dec-14 13:30N 35°20' E 139°43'918.1
2017-Dec-14 13:00N 35°28' E 139°48'714.3
2017-Dec-14 12:30N 35°35' E 139°48'2 3.4
2017-Dec-14 11:51N 35°37' E 139°48'0 0.0
2017-Dec-14 11:28N 35°37' E 139°48'0 0.0
2017-Dec-14 10:59N 35°37' E 139°48'0 0.0
2017-Dec-14 10:29N 35°37' E 139°48'0 0.0
2017-Dec-14 10:00N 35°37' E 139°48'0 0.0
2017-Dec-14 09:29N 35°37' E 139°48'0 0.0
2017-Dec-14 09:00N 35°37' E 139°48'0 0.0
2017-Dec-14 08:30N 35°37' E 139°48'0 0.0
2017-Dec-14 08:00N 35°37' E 139°48'0 0.0
2017-Dec-14 07:29N 35°37' E 139°48'0 0.0
2017-Dec-14 06:57N 35°37' E 139°48'0 0.0
2017-Dec-14 06:30N 35°37' E 139°48'0 0.0
2017-Dec-14 06:00N 35°37' E 139°48'0 0.0
2017-Dec-14 05:29N 35°37' E 139°48'0 0.0
2017-Dec-14 05:00N 35°37' E 139°48'0 0.0
2017-Dec-14 04:30N 35°37' E 139°48'0 0.0
2017-Dec-14 03:54N 35°37' E 139°48'0 0.0
2017-Dec-14 03:29N 35°37' E 139°48'0 0.0
2017-Dec-14 03:00N 35°37' E 139°48'0 0.0
2017-Dec-14 02:30N 35°37' E 139°48'0 0.0
2017-Dec-14 02:00N 35°37' E 139°48'0 0.0
2017-Dec-14 01:30N 35°37' E 139°48'0 0.0
2017-Dec-14 00:59N 35°37' E 139°48'0 0.0
2017-Dec-14 00:27N 35°37' E 139°48'0 0.0
2017-Dec-13 23:59N 35°37' E 139°48'0 0.0
2017-Dec-13 23:30N 35°37' E 139°48'0 0.0
2017-Dec-13 23:00N 35°37' E 139°48'0 0.0
2017-Dec-13 22:30N 35°37' E 139°48'0 0.0
2017-Dec-13 22:00N 35°37' E 139°48'0 0.0
2017-Dec-13 21:30N 35°37' E 139°48'0 0.0
2017-Dec-13 20:58N 35°37' E 139°48'0 0.0
2017-Dec-13 20:29N 35°37' E 139°48'1 1.7
2017-Dec-13 20:00N 35°36' E 139°47'714.9
2017-Dec-13 19:31N 35°30' E 139°52'816.3
2017-Dec-13 19:00N 35°23' E 139°46'612.0
2017-Dec-13 18:30N 35°17' E 139°45'612.8
2017-Dec-13 18:00N 35°11' E 139°47'1019.9
2017-Dec-13 17:31N 35°02' E 139°44'1019.5
2017-Dec-13 17:00N 34°56' E 139°34'1020.1
2017-Dec-13 16:30N 34°51' E 139°23'1020.1
2017-Dec-13 16:00N 34°44' E 139°14'1120.3
2017-Dec-13 15:28N 34°37' E 139°05'1020.6
2017-Dec-13 15:00N 34°31' E 138°55'1121.3
2017-Dec-13 14:29N 34°28' E 138°42'1122.1
2017-Dec-13 13:59N 34°26' E 138°29'1021.3
2017-Dec-13 13:30N 34°23' E 138°17'1221.1
2017-Dec-13 12:56N 34°21' E 138°03'15019.4
2017-Dec-13 05:13N 33°45' E 135°07'623.0
2017-Dec-13 04:57N 33°49' E 135°02'921.4
2017-Dec-13 04:30N 33°58' E 134°59'1122.9
2017-Dec-13 04:01N 34°10' E 134°59'1223.2
2017-Dec-13 03:31N 34°21' E 134°59'1122.8
2017-Dec-13 03:00N 34°32' E 135°03'815.3
2017-Dec-13 02:30N 34°35' E 134°54'1122.4
2017-Dec-13 02:00N 34°33' E 134°40'1122.7
2017-Dec-13 01:30N 34°34' E 134°27'1622.4
2017-Dec-13 00:47N 34°33' E 134°07'12 2.9
2017-Dec-12 20:37N 34°26' E 133°55'4918.6
2017-Dec-12 18:00N 34°08' E 132°60'1014.6
2017-Dec-12 17:17N 34°05' E 132°48'622.1
2017-Dec-12 17:00N 33°60' E 132°44'1121.3
2017-Dec-12 16:29N 33°51' E 132°35'1222.0
2017-Dec-12 15:57N 33°45' E 132°23'1921.5
2017-Dec-12 15:03N 33°42' E 132°00'222.7
2017-Dec-12 14:59N 33°42' E 131°58'1022.3
2017-Dec-12 14:30N 33°44' E 131°46'1122.7
2017-Dec-12 14:00N 33°47' E 131°33'1122.5
2017-Dec-12 13:31N 33°49' E 131°19'1121.0
2017-Dec-12 13:00N 33°53' E 131°08'917.2
2017-Dec-12 12:30N 33°58' E 130°59'612.0
2017-Dec-12 12:00N 33°55' E 130°53'918.5
2017-Dec-12 11:30N 34°03' E 130°47'1121.6
2017-Dec-12 11:00N 34°00' E 130°34'1020.9
2017-Dec-12 10:30N 33°56' E 130°23'1020.7
2017-Dec-12 10:00N 33°46' E 130°18'815.5
2017-Dec-12 09:31N 33°39' E 130°19'5 9.2
2017-Dec-12 09:00N 33°38' E 130°24'0 0.0
2017-Dec-12 08:30N 33°38' E 130°24'0 0.0
2017-Dec-12 08:00N 33°38' E 130°24'0 0.0
2017-Dec-12 07:30N 33°38' E 130°24'0 0.0
2017-Dec-12 07:00N 33°38' E 130°24'0 0.0
2017-Dec-12 06:30N 33°38' E 130°24'0 0.0
2017-Dec-12 06:00N 33°38' E 130°24'0 0.0
2017-Dec-12 05:30N 33°38' E 130°24'0 0.0
2017-Dec-12 05:00N 33°38' E 130°24'0 0.0
2017-Dec-12 04:30N 33°38' E 130°24'0 0.0
2017-Dec-12 04:00N 33°38' E 130°24'0 0.0
2017-Dec-12 03:30N 33°38' E 130°24'0 0.0
2017-Dec-12 03:00N 33°38' E 130°24'0 0.0
2017-Dec-12 02:30N 33°38' E 130°24'0 0.0
2017-Dec-12 02:00N 33°38' E 130°24'0 0.0
2017-Dec-12 01:30N 33°38' E 130°24'0 0.0
2017-Dec-12 01:00N 33°38' E 130°24'0 0.0
2017-Dec-12 00:30N 33°38' E 130°24'0 0.0
2017-Dec-12 00:00N 33°38' E 130°24'0 0.0
2017-Dec-11 23:30N 33°38' E 130°24'0 0.2
2017-Dec-11 23:00N 33°37' E 130°24'0 0.0
2017-Dec-11 22:30N 33°37' E 130°24'0 0.0
2017-Dec-11 22:00N 33°37' E 130°24'0 0.0
2017-Dec-11 21:30N 33°37' E 130°24'0 0.0
2017-Dec-11 21:00N 33°37' E 130°24'0 0.0
2017-Dec-11 20:30N 33°37' E 130°24'0 0.0
2017-Dec-11 20:00N 33°37' E 130°24'0 0.0
2017-Dec-11 19:30N 33°37' E 130°24'0 0.0
2017-Dec-11 19:00N 33°37' E 130°24'0 0.0
2017-Dec-11 18:30N 33°37' E 130°24'0 0.0
2017-Dec-11 18:00N 33°37' E 130°24'0 0.0
2017-Dec-11 17:30N 33°37' E 130°24'0 0.0
2017-Dec-11 17:00N 33°37' E 130°24'0 0.0
2017-Dec-11 16:30N 33°37' E 130°24'0 0.0
2017-Dec-11 16:00N 33°37' E 130°24'0 0.0
2017-Dec-11 15:30N 33°37' E 130°24'0 0.0
2017-Dec-11 15:00N 33°37' E 130°24'0 0.0
2017-Dec-11 14:30N 33°37' E 130°24'0 0.0
2017-Dec-11 14:00N 33°37' E 130°24'0 0.0
2017-Dec-11 13:30N 33°37' E 130°24'0 0.0
2017-Dec-11 13:00N 33°37' E 130°24'0 0.0
2017-Dec-11 12:30N 33°37' E 130°24'0 0.0
2017-Dec-11 12:00N 33°37' E 130°24'0 0.0
2017-Dec-11 11:30N 33°37' E 130°24'0 0.0
2017-Dec-11 11:00N 33°37' E 130°24'0 0.0
2017-Dec-11 10:30N 33°37' E 130°24'0 0.0
2017-Dec-11 10:00N 33°37' E 130°24'0 0.0
2017-Dec-11 09:30N 33°37' E 130°24'0 0.0
2017-Dec-11 09:00N 33°37' E 130°24'0 0.0
2017-Dec-11 08:30N 33°37' E 130°24'0 0.0
2017-Dec-11 08:00N 33°37' E 130°24'0 0.0
2017-Dec-11 07:30N 33°37' E 130°24'0 0.0
2017-Dec-11 07:00N 33°37' E 130°24'0 0.0
2017-Dec-11 06:30N 33°37' E 130°24'0 0.0
2017-Dec-11 06:00N 33°37' E 130°24'0 0.0
2017-Dec-11 05:30N 33°37' E 130°24'0 0.0
2017-Dec-11 05:00N 33°37' E 130°24'0 0.0
2017-Dec-11 04:30N 33°37' E 130°24'0 0.0
2017-Dec-11 04:00N 33°37' E 130°24'0 0.0
2017-Dec-11 03:30N 33°37' E 130°24'0 0.0
2017-Dec-11 03:00N 33°37' E 130°24'0 0.0
2017-Dec-11 02:30N 33°37' E 130°24'0 0.0
2017-Dec-11 02:00N 33°37' E 130°24'0 0.0
2017-Dec-11 01:30N 33°37' E 130°24'0 0.0
2017-Dec-11 01:00N 33°37' E 130°24'0 0.0
2017-Dec-11 00:30N 33°37' E 130°24'0 0.0
2017-Dec-11 00:00N 33°37' E 130°24'0 0.0
2017-Dec-10 23:30N 33°37' E 130°24'0 0.0
2017-Dec-10 23:00N 33°37' E 130°24'0 0.0
2017-Dec-10 22:30N 33°37' E 130°24'0 0.0
2017-Dec-10 22:00N 33°37' E 130°24'0 0.0
2017-Dec-10 21:30N 33°37' E 130°24'0 0.0
2017-Dec-10 21:00N 33°37' E 130°24'0 0.0
2017-Dec-10 20:30N 33°37' E 130°24'1 1.2
2017-Dec-10 20:00N 33°37' E 130°24'815.3
2017-Dec-10 19:30N 33°41' E 130°16'918.4
2017-Dec-10 19:00N 33°50' E 130°20'918.8
2017-Dec-10 18:30N 33°57' E 130°27'1019.1
2017-Dec-10 18:00N 34°01' E 130°37'918.4
2017-Dec-10 17:30N 34°03' E 130°48'714.6
2017-Dec-10 17:00N 33°56' E 130°52'5 9.3
2017-Dec-10 16:31N 33°58' E 130°58'714.5
2017-Dec-10 16:00N 33°56' E 131°06'1019.2
2017-Dec-10 15:31N 33°51' E 131°16'1020.5
2017-Dec-10 15:01N 33°49' E 131°28'1020.6
2017-Dec-10 14:30N 33°47' E 131°40'1020.4
2017-Dec-10 14:00N 33°39' E 131°48'1122.1
2017-Dec-10 13:30N 33°29' E 131°53'1019.9
2017-Dec-10 13:00N 33°20' E 131°48'611.5
2017-Dec-10 12:31N 33°15' E 131°45'0 0.0
2017-Dec-10 12:01N 33°15' E 131°45'0 0.0
2017-Dec-10 11:30N 33°15' E 131°45'2 3.0
2017-Dec-10 11:00N 33°17' E 131°45'918.8
2017-Dec-10 10:30N 33°19' E 131°56'1120.4
2017-Dec-10 09:59N 33°12' E 132°05'23019.4
2017-Dec-09 22:08N 33°54' E 136°36'622.8
2017-Dec-09 21:53N 33°58' E 136°42'3022.4
2017-Dec-09 20:32N 34°13' E 137°13'2522.4
2017-Dec-09 19:25N 34°19' E 137°43'921.9
2017-Dec-09 18:59N 34°21' E 137°54'1121.4
2017-Dec-09 18:30N 34°23' E 138°06'1020.6
2017-Dec-09 18:00N 34°25' E 138°18'1019.9
2017-Dec-09 17:30N 34°27' E 138°30'1019.9
2017-Dec-09 17:01N 34°29' E 138°42'1019.7
2017-Dec-09 16:30N 34°31' E 138°54'1019.6
2017-Dec-09 16:00N 34°38' E 139°03'1020.1
2017-Dec-09 15:30N 34°45' E 139°11'1120.9
2017-Dec-09 15:00N 34°52' E 139°20'1020.9
2017-Dec-09 14:31N 34°58' E 139°31'1020.9
2017-Dec-09 14:00N 35°05' E 139°41'918.5
2017-Dec-09 13:30N 35°13' E 139°46'713.1
2017-Dec-09 13:00N 35°19' E 139°43'816.1
2017-Dec-09 12:30N 35°27' E 139°46'815.5
2017-Dec-09 12:00N 35°34' E 139°50'4 7.3
2017-Dec-09 11:30N 35°37' E 139°48'0 0.0
2017-Dec-09 11:00N 35°37' E 139°48'0 0.0
2017-Dec-09 10:30N 35°37' E 139°48'0 0.0
2017-Dec-09 10:00N 35°37' E 139°48'0 0.0
2017-Dec-09 09:30N 35°37' E 139°48'0 0.0
2017-Dec-09 09:00N 35°37' E 139°48'0 0.0
2017-Dec-09 08:30N 35°37' E 139°48'0 0.0
2017-Dec-09 07:59N 35°37' E 139°48'0 0.0
2017-Dec-09 07:30N 35°37' E 139°48'0 0.0
2017-Dec-09 07:00N 35°37' E 139°48'0 0.0
2017-Dec-09 06:30N 35°37' E 139°48'0 0.0
2017-Dec-09 06:00N 35°37' E 139°48'0 0.0
2017-Dec-09 05:30N 35°37' E 139°48'0 0.0
2017-Dec-09 05:00N 35°37' E 139°48'0 0.0
2017-Dec-09 04:31N 35°37' E 139°48'0 0.0
2017-Dec-09 04:01N 35°37' E 139°48'0 0.0
2017-Dec-09 03:28N 35°37' E 139°48'0 0.0
2017-Dec-09 03:00N 35°37' E 139°48'0 0.0
2017-Dec-09 02:30N 35°37' E 139°48'0 0.0
2017-Dec-09 02:01N 35°37' E 139°48'0 0.0
2017-Dec-09 01:30N 35°37' E 139°48'0 0.0
2017-Dec-09 01:00N 35°37' E 139°48'0 0.0
2017-Dec-09 00:30N 35°37' E 139°48'0 0.0
2017-Dec-09 00:00N 35°37' E 139°48'0 0.0
2017-Dec-08 23:30N 35°37' E 139°48'0 0.0
2017-Dec-08 23:00N 35°37' E 139°48'0 0.0
2017-Dec-08 22:30N 35°37' E 139°48'0 0.0
2017-Dec-08 22:00N 35°37' E 139°48'0 0.0
2017-Dec-08 21:29N 35°37' E 139°48'0 0.0
2017-Dec-08 20:59N 35°37' E 139°48'0 0.0
2017-Dec-08 20:30N 35°37' E 139°48'0 0.3
2017-Dec-08 20:00N 35°37' E 139°47'4 7.5
2017-Dec-08 19:31N 35°34' E 139°49'713.5
2017-Dec-08 19:01N 35°27' E 139°49'714.2
2017-Dec-08 18:31N 35°21' E 139°45'611.2
2017-Dec-08 18:01N 35°16' E 139°47'714.0
2017-Dec-08 17:31N 35°09' E 139°46'1020.1
2017-Dec-08 17:00N 35°01' E 139°39'1222.4
2017-Dec-08 16:29N 34°54' E 139°27'1122.9
2017-Dec-08 15:59N 34°47' E 139°16'1222.9
2017-Dec-08 15:29N 34°39' E 139°06'1122.7
2017-Dec-08 15:00N 34°32' E 138°56'1122.1
2017-Dec-08 14:30N 34°29' E 138°43'1222.1
2017-Dec-08 13:57N 34°26' E 138°29'1022.4
2017-Dec-08 13:29N 34°23' E 138°17'1122.2
2017-Dec-08 12:59N 34°20' E 138°04'15219.7
2017-Dec-08 05:18N 33°47' E 135°05'722.8
2017-Dec-08 05:00N 33°52' E 135°00'1122.6
2017-Dec-08 04:30N 34°04' E 134°59'1122.1
2017-Dec-08 04:01N 34°15' E 134°59'1020.8
2017-Dec-08 03:30N 34°25' E 135°01'1020.9
2017-Dec-08 03:00N 34°35' E 135°03'917.0
2017-Dec-08 02:30N 34°35' E 134°53'1020.0
2017-Dec-08 02:00N 34°32' E 134°41'1121.8
2017-Dec-08 01:30N 34°34' E 134°28'1520.9
2017-Dec-08 00:46N 34°33' E 134°10'518.7
2017-Dec-08 00:30N 34°32' E 134°04'5 7.3
2017-Dec-07 23:49N 34°31' E 133°58'0 0.0
2017-Dec-07 21:57N 34°31' E 133°58'5 3.8
2017-Dec-07 20:36N 34°26' E 133°56'5916.7
2017-Dec-07 17:04N 34°04' E 132°49'122.0
2017-Dec-07 17:00N 34°03' E 132°48'1020.3
2017-Dec-07 16:30N 33°55' E 132°40'1020.5
2017-Dec-07 16:00N 33°48' E 132°31'1020.5
2017-Dec-07 15:30N 33°44' E 132°20'1221.0
2017-Dec-07 14:56N 33°41' E 132°06'921.6
2017-Dec-07 14:30N 33°43' E 131°56'1121.9
2017-Dec-07 14:00N 33°46' E 131°43'1122.2
2017-Dec-07 13:30N 33°48' E 131°30'1122.0
2017-Dec-07 13:00N 33°50' E 131°17'1020.2
2017-Dec-07 12:30N 33°55' E 131°06'815.2
2017-Dec-07 12:00N 33°57' E 130°57'5 9.5
2017-Dec-07 11:30N 33°57' E 130°52'917.8
2017-Dec-07 11:00N 34°02' E 130°43'1122.6
2017-Dec-07 10:31N 33°59' E 130°30'1021.0
2017-Dec-07 10:01N 33°52' E 130°21'1121.5
2017-Dec-07 09:30N 33°42' E 130°16'816.1
2017-Dec-07 09:01N 33°37' E 130°23'1 1.8
2017-Dec-07 08:31N 33°38' E 130°24'0 0.0
2017-Dec-07 08:01N 33°38' E 130°24'0 0.0
2017-Dec-07 07:31N 33°38' E 130°24'0 0.0
2017-Dec-07 07:00N 33°38' E 130°24'0 0.0
2017-Dec-07 06:30N 33°38' E 130°24'0 0.0
2017-Dec-07 06:00N 33°38' E 130°24'0 0.0
2017-Dec-07 05:30N 33°38' E 130°24'0 0.0
2017-Dec-07 05:00N 33°38' E 130°24'0 0.0
2017-Dec-07 04:30N 33°38' E 130°24'0 0.0
2017-Dec-07 04:01N 33°38' E 130°24'0 0.0
2017-Dec-07 03:30N 33°38' E 130°24'0 0.0
2017-Dec-07 03:00N 33°38' E 130°24'0 0.0
2017-Dec-07 02:31N 33°38' E 130°24'0 0.0
2017-Dec-07 02:00N 33°38' E 130°24'0 0.0
2017-Dec-07 01:30N 33°38' E 130°24'0 0.0
2017-Dec-07 01:00N 33°38' E 130°24'0 0.0
2017-Dec-07 00:30N 33°38' E 130°24'0 0.0
2017-Dec-07 00:00N 33°38' E 130°24'0 0.0
2017-Dec-06 23:30N 33°38' E 130°24'0 0.0
2017-Dec-06 23:01N 33°38' E 130°24'0 0.0
2017-Dec-06 22:30N 33°38' E 130°24'0 0.0
2017-Dec-06 22:00N 33°38' E 130°24'0 0.0
2017-Dec-06 21:30N 33°38' E 130°24'0 0.0
2017-Dec-06 21:01N 33°38' E 130°24'  
Track history (hours):
 
Tides and Currents Weather Stations Pressure Air Temp Water Temp Dewpoint Dewpoint Depression Visibility Wind Speed Wind Dir Waves Ship Positions

Sunflower Hakata

Last reported at 2017-Dec-15 06:52 UTC. Time now 2017-Dec-15 08:13 UTC.
Position N 32°47' E 133°14'.

Length 167 m; draft 6.6 m.

Type: Cargo ship. MMSI: 431501764.

Date/timePositionNaut miles runAvg speedWind from/ knotsBaromVisibWave heightAir tempDewpointWater temp
2017-Dec-15 06:52N 32°47' E 133°14'27021.8
2017-Dec-14 18:29N 34°25' E 138°16'1120.9
2017-Dec-14 17:58N 34°27' E 138°29'1020.7
2017-Dec-14 17:29N 34°28' E 138°41'1020.9
2017-Dec-14 17:00N 34°30' E 138°53'1121.3
2017-Dec-14 16:30N 34°37' E 139°02'1122.8
2017-Dec-14 16:00N 34°46' E 139°12'2121.2
2017-Dec-14 15:00N 34°59' E 139°31'1121.8
2017-Dec-14 14:30N 35°06' E 139°42'917.6
2017-Dec-14 14:01N 35°14' E 139°46'713.3
2017-Dec-14 13:30N 35°20' E 139°43'918.1
2017-Dec-14 13:00N 35°28' E 139°48'714.3
2017-Dec-14 12:30N 35°35' E 139°48'2 3.4
2017-Dec-14 11:51N 35°37' E 139°48'0 0.0
2017-Dec-14 11:28N 35°37' E 139°48'0 0.0
2017-Dec-14 10:59N 35°37' E 139°48'0 0.0
2017-Dec-14 10:29N 35°37' E 139°48'0 0.0
2017-Dec-14 10:00N 35°37' E 139°48'0 0.0
2017-Dec-14 09:29N 35°37' E 139°48'0 0.0
2017-Dec-14 09:00N 35°37' E 139°48'0 0.0
2017-Dec-14 08:30N 35°37' E 139°48'0 0.0
2017-Dec-14 08:00N 35°37' E 139°48'0 0.0
2017-Dec-14 07:29N 35°37' E 139°48'0 0.0
2017-Dec-14 06:57N 35°37' E 139°48'0 0.0
2017-Dec-14 06:30N 35°37' E 139°48'0 0.0
2017-Dec-14 06:00N 35°37' E 139°48'0 0.0
2017-Dec-14 05:29N 35°37' E 139°48'0 0.0
2017-Dec-14 05:00N 35°37' E 139°48'0 0.0
2017-Dec-14 04:30N 35°37' E 139°48'0 0.0
2017-Dec-14 03:54N 35°37' E 139°48'0 0.0
2017-Dec-14 03:29N 35°37' E 139°48'0 0.0
2017-Dec-14 03:00N 35°37' E 139°48'0 0.0
2017-Dec-14 02:30N 35°37' E 139°48'0 0.0
2017-Dec-14 02:00N 35°37' E 139°48'0 0.0
2017-Dec-14 01:30N 35°37' E 139°48'0 0.0
2017-Dec-14 00:59N 35°37' E 139°48'0 0.0
2017-Dec-14 00:27N 35°37' E 139°48'0 0.0
2017-Dec-13 23:59N 35°37' E 139°48'0 0.0
2017-Dec-13 23:30N 35°37' E 139°48'0 0.0
2017-Dec-13 23:00N 35°37' E 139°48'0 0.0
2017-Dec-13 22:30N 35°37' E 139°48'0 0.0
2017-Dec-13 22:00N 35°37' E 139°48'0 0.0
2017-Dec-13 21:30N 35°37' E 139°48'0 0.0
2017-Dec-13 20:58N 35°37' E 139°48'0 0.0
2017-Dec-13 20:29N 35°37' E 139°48'1 1.7
2017-Dec-13 20:00N 35°36' E 139°47'714.9
2017-Dec-13 19:31N 35°30' E 139°52'816.3
2017-Dec-13 19:00N 35°23' E 139°46'612.0
2017-Dec-13 18:30N 35°17' E 139°45'612.8
2017-Dec-13 18:00N 35°11' E 139°47'1019.9
2017-Dec-13 17:31N 35°02' E 139°44'1019.5
2017-Dec-13 17:00N 34°56' E 139°34'1020.1
2017-Dec-13 16:30N 34°51' E 139°23'1020.1
2017-Dec-13 16:00N 34°44' E 139°14'1120.3
2017-Dec-13 15:28N 34°37' E 139°05'1020.6
2017-Dec-13 15:00N 34°31' E 138°55'1121.3
2017-Dec-13 14:29N 34°28' E 138°42'1122.1
2017-Dec-13 13:59N 34°26' E 138°29'1021.3
2017-Dec-13 13:30N 34°23' E 138°17'1221.1
2017-Dec-13 12:56N 34°21' E 138°03'15019.4
2017-Dec-13 05:13N 33°45' E 135°07'623.0
2017-Dec-13 04:57N 33°49' E 135°02'921.4
2017-Dec-13 04:30N 33°58' E 134°59'1122.9
2017-Dec-13 04:01N 34°10' E 134°59'1223.2
2017-Dec-13 03:31N 34°21' E 134°59'1122.8
2017-Dec-13 03:00N 34°32' E 135°03'815.3
2017-Dec-13 02:30N 34°35' E 134°54'1122.4
2017-Dec-13 02:00N 34°33' E 134°40'1122.7
2017-Dec-13 01:30N 34°34' E 134°27'1622.4
2017-Dec-13 00:47N 34°33' E 134°07'12 2.9
2017-Dec-12 20:37N 34°26' E 133°55'4918.6
2017-Dec-12 18:00N 34°08' E 132°60'1014.6
2017-Dec-12 17:17N 34°05' E 132°48'622.1
2017-Dec-12 17:00N 33°60' E 132°44'1121.3
2017-Dec-12 16:29N 33°51' E 132°35'1222.0
2017-Dec-12 15:57N 33°45' E 132°23'1921.5
2017-Dec-12 15:03N 33°42' E 132°00'222.7
2017-Dec-12 14:59N 33°42' E 131°58'1022.3
2017-Dec-12 14:30N 33°44' E 131°46'1122.7
2017-Dec-12 14:00N 33°47' E 131°33'1122.5
2017-Dec-12 13:31N 33°49' E 131°19'1121.0
2017-Dec-12 13:00N 33°53' E 131°08'917.2
2017-Dec-12 12:30N 33°58' E 130°59'612.0
2017-Dec-12 12:00N 33°55' E 130°53'918.5
2017-Dec-12 11:30N 34°03' E 130°47'1121.6
2017-Dec-12 11:00N 34°00' E 130°34'1020.9
2017-Dec-12 10:30N 33°56' E 130°23'1020.7
2017-Dec-12 10:00N 33°46' E 130°18'815.5
2017-Dec-12 09:31N 33°39' E 130°19'5 9.2
2017-Dec-12 09:00N 33°38' E 130°24'0 0.0
2017-Dec-12 08:30N 33°38' E 130°24'0 0.0
2017-Dec-12 08:00N 33°38' E 130°24'0 0.0
2017-Dec-12 07:30N 33°38' E 130°24'0 0.0
2017-Dec-12 07:00N 33°38' E 130°24'0 0.0
2017-Dec-12 06:30N 33°38' E 130°24'0 0.0
2017-Dec-12 06:00N 33°38' E 130°24'0 0.0
2017-Dec-12 05:30N 33°38' E 130°24'0 0.0
2017-Dec-12 05:00N 33°38' E 130°24'0 0.0
2017-Dec-12 04:30N 33°38' E 130°24'0 0.0
2017-Dec-12 04:00N 33°38' E 130°24'0 0.0
2017-Dec-12 03:30N 33°38' E 130°24'0 0.0
2017-Dec-12 03:00N 33°38' E 130°24'0 0.0
2017-Dec-12 02:30N 33°38' E 130°24'0 0.0
2017-Dec-12 02:00N 33°38' E 130°24'0 0.0
2017-Dec-12 01:30N 33°38' E 130°24'0 0.0
2017-Dec-12 01:00N 33°38' E 130°24'0 0.0
2017-Dec-12 00:30N 33°38' E 130°24'0 0.0
2017-Dec-12 00:00N 33°38' E 130°24'0 0.0
2017-Dec-11 23:30N 33°38' E 130°24'0 0.2
2017-Dec-11 23:00N 33°37' E 130°24'0 0.0
2017-Dec-11 22:30N 33°37' E 130°24'0 0.0
2017-Dec-11 22:00N 33°37' E 130°24'0 0.0
2017-Dec-11 21:30N 33°37' E 130°24'0 0.0
2017-Dec-11 21:00N 33°37' E 130°24'0 0.0
2017-Dec-11 20:30N 33°37' E 130°24'0 0.0
2017-Dec-11 20:00N 33°37' E 130°24'0 0.0
2017-Dec-11 19:30N 33°37' E 130°24'0 0.0
2017-Dec-11 19:00N 33°37' E 130°24'0 0.0
2017-Dec-11 18:30N 33°37' E 130°24'0 0.0
2017-Dec-11 18:00N 33°37' E 130°24'0 0.0
2017-Dec-11 17:30N 33°37' E 130°24'0 0.0
2017-Dec-11 17:00N 33°37' E 130°24'0 0.0
2017-Dec-11 16:30N 33°37' E 130°24'0 0.0
2017-Dec-11 16:00N 33°37' E 130°24'0 0.0
2017-Dec-11 15:30N 33°37' E 130°24'0 0.0
2017-Dec-11 15:00N 33°37' E 130°24'0 0.0
2017-Dec-11 14:30N 33°37' E 130°24'0 0.0
2017-Dec-11 14:00N 33°37' E 130°24'0 0.0
2017-Dec-11 13:30N 33°37' E 130°24'0 0.0
2017-Dec-11 13:00N 33°37' E 130°24'0 0.0
2017-Dec-11 12:30N 33°37' E 130°24'0 0.0
2017-Dec-11 12:00N 33°37' E 130°24'0 0.0
2017-Dec-11 11:30N 33°37' E 130°24'0 0.0
2017-Dec-11 11:00N 33°37' E 130°24'0 0.0
2017-Dec-11 10:30N 33°37' E 130°24'0 0.0
2017-Dec-11 10:00N 33°37' E 130°24'0 0.0
2017-Dec-11 09:30N 33°37' E 130°24'0 0.0
2017-Dec-11 09:00N 33°37' E 130°24'0 0.0
2017-Dec-11 08:30N 33°37' E 130°24'0 0.0
2017-Dec-11 08:00N 33°37' E 130°24'0 0.0
2017-Dec-11 07:30N 33°37' E 130°24'0 0.0
2017-Dec-11 07:00N 33°37' E 130°24'0 0.0
2017-Dec-11 06:30N 33°37' E 130°24'0 0.0
2017-Dec-11 06:00N 33°37' E 130°24'0 0.0
2017-Dec-11 05:30N 33°37' E 130°24'0 0.0
2017-Dec-11 05:00N 33°37' E 130°24'0 0.0
2017-Dec-11 04:30N 33°37' E 130°24'0 0.0
2017-Dec-11 04:00N 33°37' E 130°24'0 0.0
2017-Dec-11 03:30N 33°37' E 130°24'0 0.0
2017-Dec-11 03:00N 33°37' E 130°24'0 0.0
2017-Dec-11 02:30N 33°37' E 130°24'0 0.0
2017-Dec-11 02:00N 33°37' E 130°24'0 0.0
2017-Dec-11 01:30N 33°37' E 130°24'0 0.0
2017-Dec-11 01:00N 33°37' E 130°24'0 0.0
2017-Dec-11 00:30N 33°37' E 130°24'0 0.0
2017-Dec-11 00:00N 33°37' E 130°24'0 0.0
2017-Dec-10 23:30N 33°37' E 130°24'0 0.0
2017-Dec-10 23:00N 33°37' E 130°24'0 0.0
2017-Dec-10 22:30N 33°37' E 130°24'0 0.0
2017-Dec-10 22:00N 33°37' E 130°24'0 0.0
2017-Dec-10 21:30N 33°37' E 130°24'0 0.0
2017-Dec-10 21:00N 33°37' E 130°24'0 0.0
2017-Dec-10 20:30N 33°37' E 130°24'1 1.2
2017-Dec-10 20:00N 33°37' E 130°24'815.3
2017-Dec-10 19:30N 33°41' E 130°16'918.4
2017-Dec-10 19:00N 33°50' E 130°20'918.8
2017-Dec-10 18:30N 33°57' E 130°27'1019.1
2017-Dec-10 18:00N 34°01' E 130°37'918.4
2017-Dec-10 17:30N 34°03' E 130°48'714.6
2017-Dec-10 17:00N 33°56' E 130°52'5 9.3
2017-Dec-10 16:31N 33°58' E 130°58'714.5
2017-Dec-10 16:00N 33°56' E 131°06'1019.2
2017-Dec-10 15:31N 33°51' E 131°16'1020.5
2017-Dec-10 15:01N 33°49' E 131°28'1020.6
2017-Dec-10 14:30N 33°47' E 131°40'1020.4
2017-Dec-10 14:00N 33°39' E 131°48'1122.1
2017-Dec-10 13:30N 33°29' E 131°53'1019.9
2017-Dec-10 13:00N 33°20' E 131°48'611.5
2017-Dec-10 12:31N 33°15' E 131°45'0 0.0
2017-Dec-10 12:01N 33°15' E 131°45'0 0.0
2017-Dec-10 11:30N 33°15' E 131°45'2 3.0
2017-Dec-10 11:00N 33°17' E 131°45'918.8
2017-Dec-10 10:30N 33°19' E 131°56'1120.4
2017-Dec-10 09:59N 33°12' E 132°05'23019.4
2017-Dec-09 22:08N 33°54' E 136°36'622.8
2017-Dec-09 21:53N 33°58' E 136°42'3022.4
2017-Dec-09 20:32N 34°13' E 137°13'2522.4
2017-Dec-09 19:25N 34°19' E 137°43'921.9
2017-Dec-09 18:59N 34°21' E 137°54'1121.4
2017-Dec-09 18:30N 34°23' E 138°06'1020.6
2017-Dec-09 18:00N 34°25' E 138°18'1019.9
2017-Dec-09 17:30N 34°27' E 138°30'1019.9
2017-Dec-09 17:01N 34°29' E 138°42'1019.7
2017-Dec-09 16:30N 34°31' E 138°54'1019.6
2017-Dec-09 16:00N 34°38' E 139°03'1020.1
2017-Dec-09 15:30N 34°45' E 139°11'1120.9
2017-Dec-09 15:00N 34°52' E 139°20'1020.9
2017-Dec-09 14:31N 34°58' E 139°31'1020.9
2017-Dec-09 14:00N 35°05' E 139°41'918.5
2017-Dec-09 13:30N 35°13' E 139°46'713.1
2017-Dec-09 13:00N 35°19' E 139°43'816.1
2017-Dec-09 12:30N 35°27' E 139°46'815.5
2017-Dec-09 12:00N 35°34' E 139°50'4 7.3
2017-Dec-09 11:30N 35°37' E 139°48'0 0.0
2017-Dec-09 11:00N 35°37' E 139°48'0 0.0
2017-Dec-09 10:30N 35°37' E 139°48'0 0.0
2017-Dec-09 10:00N 35°37' E 139°48'0 0.0
2017-Dec-09 09:30N 35°37' E 139°48'0 0.0
2017-Dec-09 09:00N 35°37' E 139°48'0 0.0
2017-Dec-09 08:30N 35°37' E 139°48'0 0.0
2017-Dec-09 07:59N 35°37' E 139°48'0 0.0
2017-Dec-09 07:30N 35°37' E 139°48'0 0.0
2017-Dec-09 07:00N 35°37' E 139°48'0 0.0
2017-Dec-09 06:30N 35°37' E 139°48'0 0.0
2017-Dec-09 06:00N 35°37' E 139°48'0 0.0
2017-Dec-09 05:30N 35°37' E 139°48'0 0.0
2017-Dec-09 05:00N 35°37' E 139°48'0 0.0
2017-Dec-09 04:31N 35°37' E 139°48'0 0.0
2017-Dec-09 04:01N 35°37' E 139°48'0 0.0
2017-Dec-09 03:28N 35°37' E 139°48'0 0.0
2017-Dec-09 03:00N 35°37' E 139°48'0 0.0
2017-Dec-09 02:30N 35°37' E 139°48'0 0.0
2017-Dec-09 02:01N 35°37' E 139°48'0 0.0
2017-Dec-09 01:30N 35°37' E 139°48'0 0.0
2017-Dec-09 01:00N 35°37' E 139°48'0 0.0
2017-Dec-09 00:30N 35°37' E 139°48'0 0.0
2017-Dec-09 00:00N 35°37' E 139°48'0 0.0
2017-Dec-08 23:30N 35°37' E 139°48'0 0.0
2017-Dec-08 23:00N 35°37' E 139°48'0 0.0
2017-Dec-08 22:30N 35°37' E 139°48'0 0.0
2017-Dec-08 22:00N 35°37' E 139°48'0 0.0
2017-Dec-08 21:29N 35°37' E 139°48'0 0.0
2017-Dec-08 20:59N 35°37' E 139°48'0 0.0
2017-Dec-08 20:30N 35°37' E 139°48'0 0.3
2017-Dec-08 20:00N 35°37' E 139°47'4 7.5
2017-Dec-08 19:31N 35°34' E 139°49'713.5
2017-Dec-08 19:01N 35°27' E 139°49'714.2
2017-Dec-08 18:31N 35°21' E 139°45'611.2
2017-Dec-08 18:01N 35°16' E 139°47'714.0
2017-Dec-08 17:31N 35°09' E 139°46'1020.1
2017-Dec-08 17:00N 35°01' E 139°39'1222.4
2017-Dec-08 16:29N 34°54' E 139°27'1122.9
2017-Dec-08 15:59N 34°47' E 139°16'1222.9
2017-Dec-08 15:29N 34°39' E 139°06'1122.7
2017-Dec-08 15:00N 34°32' E 138°56'1122.1
2017-Dec-08 14:30N 34°29' E 138°43'1222.1
2017-Dec-08 13:57N 34°26' E 138°29'1022.4
2017-Dec-08 13:29N 34°23' E 138°17'1122.2
2017-Dec-08 12:59N 34°20' E 138°04'15219.7
2017-Dec-08 05:18N 33°47' E 135°05'722.8
2017-Dec-08 05:00N 33°52' E 135°00'1122.6
2017-Dec-08 04:30N 34°04' E 134°59'1122.1
2017-Dec-08 04:01N 34°15' E 134°59'1020.8
2017-Dec-08 03:30N 34°25' E 135°01'1020.9
2017-Dec-08 03:00N 34°35' E 135°03'917.0
2017-Dec-08 02:30N 34°35' E 134°53'1020.0
2017-Dec-08 02:00N 34°32' E 134°41'1121.8
2017-Dec-08 01:30N 34°34' E 134°28'1520.9
2017-Dec-08 00:46N 34°33' E 134°10'518.7
2017-Dec-08 00:30N 34°32' E 134°04'5 7.3
2017-Dec-07 23:49N 34°31' E 133°58'0 0.0
2017-Dec-07 21:57N 34°31' E 133°58'5 3.8
2017-Dec-07 20:36N 34°26' E 133°56'5916.7
2017-Dec-07 17:04N 34°04' E 132°49'122.0
2017-Dec-07 17:00N 34°03' E 132°48'1020.3
2017-Dec-07 16:30N 33°55' E 132°40'1020.5
2017-Dec-07 16:00N 33°48' E 132°31'1020.5
2017-Dec-07 15:30N 33°44' E 132°20'1221.0
2017-Dec-07 14:56N 33°41' E 132°06'921.6
2017-Dec-07 14:30N 33°43' E 131°56'1121.9
2017-Dec-07 14:00N 33°46' E 131°43'1122.2
2017-Dec-07 13:30N 33°48' E 131°30'1122.0
2017-Dec-07 13:00N 33°50' E 131°17'1020.2
2017-Dec-07 12:30N 33°55' E 131°06'815.2
2017-Dec-07 12:00N 33°57' E 130°57'5 9.5
2017-Dec-07 11:30N 33°57' E 130°52'917.8
2017-Dec-07 11:00N 34°02' E 130°43'1122.6
2017-Dec-07 10:31N 33°59' E 130°30'1021.0
2017-Dec-07 10:01N 33°52' E 130°21'1121.5
2017-Dec-07 09:30N 33°42' E 130°16'816.1
2017-Dec-07 09:01N 33°37' E 130°23'1 1.8
2017-Dec-07 08:31N 33°38' E 130°24'0 0.0
2017-Dec-07 08:01N 33°38' E 130°24'0 0.0
2017-Dec-07 07:31N 33°38' E 130°24'0 0.0
2017-Dec-07 07:00N 33°38' E 130°24'0 0.0
2017-Dec-07 06:30N 33°38' E 130°24'0 0.0
2017-Dec-07 06:00N 33°38' E 130°24'0 0.0
2017-Dec-07 05:30N 33°38' E 130°24'0 0.0
2017-Dec-07 05:00N 33°38' E 130°24'0 0.0
2017-Dec-07 04:30N 33°38' E 130°24'0 0.0
2017-Dec-07 04:01N 33°38' E 130°24'0 0.0
2017-Dec-07 03:30N 33°38' E 130°24'0 0.0
2017-Dec-07 03:00N 33°38' E 130°24'0 0.0
2017-Dec-07 02:31N 33°38' E 130°24'0 0.0
2017-Dec-07 02:00N 33°38' E 130°24'0 0.0
2017-Dec-07 01:30N 33°38' E 130°24'0 0.0
2017-Dec-07 01:00N 33°38' E 130°24'0 0.0
2017-Dec-07 00:30N 33°38' E 130°24'0 0.0
2017-Dec-07 00:00N 33°38' E 130°24'0 0.0
2017-Dec-06 23:30N 33°38' E 130°24'0 0.0
2017-Dec-06 23:01N 33°38' E 130°24'0 0.0
2017-Dec-06 22:30N 33°38' E 130°24'0 0.0
2017-Dec-06 22:00N 33°38' E 130°24'0 0.0
2017-Dec-06 21:30N 33°38' E 130°24'0 0.0
2017-Dec-06 21:01N 33°38' E 130°24'  

Dump ship's entire track history